sensor_id;sensor_type;location;lat;lon;timestamp;temperature;humidity
30459;DHT22;74163;50.912;6.918;2023-12-20T00:00:29;7.90;99.90
30459;DHT22;74163;50.912;6.918;2023-12-20T00:01:01;8.00;99.90
30459;DHT22;74163;50.912;6.918;2023-12-20T00:01:33;8.00;99.90
30459;DHT22;74163;50.912;6.918;2023-12-20T00:02:05;8.00;99.90
30459;DHT22;74163;50.912;6.918;2023-12-20T00:02:37;8.00;99.90
30459;DHT22;74163;50.912;6.918;2023-12-20T00:03:09;8.00;99.90
30459;DHT22;74163;50.912;6.918;2023-12-20T00:03:41;8.00;99.90
30459;DHT22;74163;50.912;6.918;2023-12-20T00:04:13;8.00;99.90
30459;DHT22;74163;50.912;6.918;2023-12-20T00:04:45;8.10;99.90
30459;DHT22;74163;50.912;6.918;2023-12-20T00:05:17;8.00;99.90
30459;DHT22;74163;50.912;6.918;2023-12-20T00:05:50;8.00;99.90
30459;DHT22;74163;50.912;6.918;2023-12-20T00:06:22;8.00;99.90
30459;DHT22;74163;50.912;6.918;2023-12-20T00:06:54;8.00;99.90
30459;DHT22;74163;50.912;6.918;2023-12-20T00:07:26;8.00;99.90
30459;DHT22;74163;50.912;6.918;2023-12-20T00:07:58;8.00;99.90
30459;DHT22;74163;50.912;6.918;2023-12-20T00:08:30;8.00;99.90
30459;DHT22;74163;50.912;6.918;2023-12-20T00:09:02;8.00;99.90
30459;DHT22;74163;50.912;6.918;2023-12-20T00:09:33;8.00;99.90
30459;DHT22;74163;50.912;6.918;2023-12-20T00:10:06;8.00;99.90
30459;DHT22;74163;50.912;6.918;2023-12-20T00:10:39;8.00;99.90
30459;DHT22;74163;50.912;6.918;2023-12-20T00:11:12;8.00;99.90
30459;DHT22;74163;50.912;6.918;2023-12-20T00:11:44;8.00;99.90
30459;DHT22;74163;50.912;6.918;2023-12-20T00:12:15;8.00;99.90
30459;DHT22;74163;50.912;6.918;2023-12-20T00:12:47;8.00;99.90
30459;DHT22;74163;50.912;6.918;2023-12-20T00:13:19;8.00;99.90
30459;DHT22;74163;50.912;6.918;2023-12-20T00:13:51;8.00;99.90
30459;DHT22;74163;50.912;6.918;2023-12-20T00:14:23;8.00;99.90
30459;DHT22;74163;50.912;6.918;2023-12-20T00:14:55;8.00;99.90
30459;DHT22;74163;50.912;6.918;2023-12-20T00:15:27;8.10;99.90
30459;DHT22;74163;50.912;6.918;2023-12-20T00:15:58;8.00;99.90
30459;DHT22;74163;50.912;6.918;2023-12-20T00:16:31;8.00;99.90
30459;DHT22;74163;50.912;6.918;2023-12-20T00:17:03;8.10;99.90
30459;DHT22;74163;50.912;6.918;2023-12-20T00:17:35;8.10;99.90
30459;DHT22;74163;50.912;6.918;2023-12-20T00:18:07;8.10;99.90
30459;DHT22;74163;50.912;6.918;2023-12-20T00:18:39;8.10;99.90
30459;DHT22;74163;50.912;6.918;2023-12-20T00:19:10;8.10;99.90
30459;DHT22;74163;50.912;6.918;2023-12-20T00:19:42;8.10;99.90
30459;DHT22;74163;50.912;6.918;2023-12-20T00:20:14;8.10;99.90
30459;DHT22;74163;50.912;6.918;2023-12-20T00:20:46;8.10;99.90
30459;DHT22;74163;50.912;6.918;2023-12-20T00:21:18;8.10;99.90
30459;DHT22;74163;50.912;6.918;2023-12-20T00:21:50;8.10;99.90
30459;DHT22;74163;50.912;6.918;2023-12-20T00:22:22;8.10;99.90
30459;DHT22;74163;50.912;6.918;2023-12-20T00:22:56;8.10;99.90
30459;DHT22;74163;50.912;6.918;2023-12-20T00:23:28;8.10;99.90
30459;DHT22;74163;50.912;6.918;2023-12-20T00:24:00;8.10;99.90
30459;DHT22;74163;50.912;6.918;2023-12-20T00:24:32;8.10;99.90
30459;DHT22;74163;50.912;6.918;2023-12-20T00:25:04;8.10;99.90
30459;DHT22;74163;50.912;6.918;2023-12-20T00:25:36;8.10;99.90
30459;DHT22;74163;50.912;6.918;2023-12-20T00:26:10;8.10;99.90
30459;DHT22;74163;50.912;6.918;2023-12-20T00:26:41;8.20;99.90
30459;DHT22;74163;50.912;6.918;2023-12-20T00:27:13;8.10;99.90
30459;DHT22;74163;50.912;6.918;2023-12-20T00:27:45;8.10;99.90
30459;DHT22;74163;50.912;6.918;2023-12-20T00:28:17;8.10;99.90
30459;DHT22;74163;50.912;6.918;2023-12-20T00:28:49;8.10;99.90
30459;DHT22;74163;50.912;6.918;2023-12-20T00:29:21;8.10;99.90
30459;DHT22;74163;50.912;6.918;2023-12-20T00:29:53;8.10;99.90
30459;DHT22;74163;50.912;6.918;2023-12-20T00:30:25;8.10;99.90
30459;DHT22;74163;50.912;6.918;2023-12-20T00:30:57;8.10;99.90
30459;DHT22;74163;50.912;6.918;2023-12-20T00:31:29;8.10;99.90
30459;DHT22;74163;50.912;6.918;2023-12-20T00:32:01;8.10;99.90
30459;DHT22;74163;50.912;6.918;2023-12-20T00:32:33;8.10;99.90
30459;DHT22;74163;50.912;6.918;2023-12-20T00:33:05;8.20;99.90
30459;DHT22;74163;50.912;6.918;2023-12-20T00:33:37;8.30;99.90
30459;DHT22;74163;50.912;6.918;2023-12-20T00:34:09;8.20;99.90
30459;DHT22;74163;50.912;6.918;2023-12-20T00:34:41;8.30;99.90
30459;DHT22;74163;50.912;6.918;2023-12-20T00:35:13;8.20;99.90
30459;DHT22;74163;50.912;6.918;2023-12-20T00:35:45;8.30;99.90
30459;DHT22;74163;50.912;6.918;2023-12-20T00:36:17;8.20;99.90
30459;DHT22;74163;50.912;6.918;2023-12-20T00:36:49;8.20;99.90
30459;DHT22;74163;50.912;6.918;2023-12-20T00:37:21;8.20;99.90
30459;DHT22;74163;50.912;6.918;2023-12-20T00:37:53;8.20;99.90
30459;DHT22;74163;50.912;6.918;2023-12-20T00:38:25;8.20;99.90
30459;DHT22;74163;50.912;6.918;2023-12-20T00:38:57;8.20;99.90
30459;DHT22;74163;50.912;6.918;2023-12-20T00:39:29;8.20;99.90
30459;DHT22;74163;50.912;6.918;2023-12-20T00:40:00;8.20;99.90
30459;DHT22;74163;50.912;6.918;2023-12-20T00:40:33;8.20;99.90
30459;DHT22;74163;50.912;6.918;2023-12-20T00:41:05;8.20;99.90
30459;DHT22;74163;50.912;6.918;2023-12-20T00:41:38;8.20;99.90
30459;DHT22;74163;50.912;6.918;2023-12-20T00:42:10;8.30;99.90
30459;DHT22;74163;50.912;6.918;2023-12-20T00:42:42;8.30;99.90
30459;DHT22;74163;50.912;6.918;2023-12-20T00:43:14;8.20;99.90
30459;DHT22;74163;50.912;6.918;2023-12-20T00:43:46;8.20;99.90
30459;DHT22;74163;50.912;6.918;2023-12-20T00:44:18;8.30;99.90
30459;DHT22;74163;50.912;6.918;2023-12-20T00:44:50;8.10;99.90
30459;DHT22;74163;50.912;6.918;2023-12-20T00:45:22;8.10;99.90
30459;DHT22;74163;50.912;6.918;2023-12-20T00:45:53;8.20;99.90
30459;DHT22;74163;50.912;6.918;2023-12-20T00:46:25;8.10;99.90
30459;DHT22;74163;50.912;6.918;2023-12-20T00:46:57;8.20;99.90
30459;DHT22;74163;50.912;6.918;2023-12-20T00:47:29;8.10;99.90
30459;DHT22;74163;50.912;6.918;2023-12-20T00:48:01;8.10;99.90
30459;DHT22;74163;50.912;6.918;2023-12-20T00:48:33;8.10;99.90
30459;DHT22;74163;50.912;6.918;2023-12-20T00:49:05;8.10;99.90
30459;DHT22;74163;50.912;6.918;2023-12-20T00:49:37;8.10;99.90
30459;DHT22;74163;50.912;6.918;2023-12-20T00:50:09;8.10;99.90
30459;DHT22;74163;50.912;6.918;2023-12-20T00:50:41;8.10;99.90
30459;DHT22;74163;50.912;6.918;2023-12-20T00:51:13;8.00;99.90
30459;DHT22;74163;50.912;6.918;2023-12-20T00:51:45;8.10;99.90
30459;DHT22;74163;50.912;6.918;2023-12-20T00:52:17;8.10;99.90
30459;DHT22;74163;50.912;6.918;2023-12-20T00:52:49;8.10;99.90
30459;DHT22;74163;50.912;6.918;2023-12-20T00:53:21;8.10;99.90
30459;DHT22;74163;50.912;6.918;2023-12-20T00:53:53;8.00;99.90
30459;DHT22;74163;50.912;6.918;2023-12-20T00:54:25;8.00;99.90
30459;DHT22;74163;50.912;6.918;2023-12-20T00:54:57;8.00;99.90
30459;DHT22;74163;50.912;6.918;2023-12-20T00:55:29;8.00;99.90
30459;DHT22;74163;50.912;6.918;2023-12-20T00:56:00;8.00;99.90
30459;DHT22;74163;50.912;6.918;2023-12-20T00:56:32;8.00;99.90
30459;DHT22;74163;50.912;6.918;2023-12-20T00:57:06;8.00;99.90
30459;DHT22;74163;50.912;6.918;2023-12-20T00:57:37;8.00;99.90
30459;DHT22;74163;50.912;6.918;2023-12-20T00:58:09;7.90;99.90
30459;DHT22;74163;50.912;6.918;2023-12-20T00:58:41;7.90;99.90
30459;DHT22;74163;50.912;6.918;2023-12-20T00:59:13;7.90;99.90
30459;DHT22;74163;50.912;6.918;2023-12-20T00:59:45;8.00;99.90
30459;DHT22;74163;50.912;6.918;2023-12-20T01:00:17;7.90;99.90
30459;DHT22;74163;50.912;6.918;2023-12-20T01:00:49;7.90;99.90
30459;DHT22;74163;50.912;6.918;2023-12-20T01:01:21;7.90;99.90
30459;DHT22;74163;50.912;6.918;2023-12-20T01:01:53;7.90;99.90
30459;DHT22;74163;50.912;6.918;2023-12-20T01:02:25;7.90;99.90
30459;DHT22;74163;50.912;6.918;2023-12-20T01:02:57;7.80;99.90
30459;DHT22;74163;50.912;6.918;2023-12-20T01:03:29;7.80;99.90
30459;DHT22;74163;50.912;6.918;2023-12-20T01:04:01;7.90;99.90
30459;DHT22;74163;50.912;6.918;2023-12-20T01:04:35;7.80;99.90
30459;DHT22;74163;50.912;6.918;2023-12-20T01:05:08;7.80;99.90
30459;DHT22;74163;50.912;6.918;2023-12-20T01:05:39;7.80;99.90
30459;DHT22;74163;50.912;6.918;2023-12-20T01:06:12;7.80;99.90
30459;DHT22;74163;50.912;6.918;2023-12-20T01:06:44;7.80;99.90
30459;DHT22;74163;50.912;6.918;2023-12-20T01:07:16;7.80;99.90
30459;DHT22;74163;50.912;6.918;2023-12-20T01:07:48;7.80;99.90
30459;DHT22;74163;50.912;6.918;2023-12-20T01:08:20;7.80;99.90
30459;DHT22;74163;50.912;6.918;2023-12-20T01:08:52;7.80;99.90
30459;DHT22;74163;50.912;6.918;2023-12-20T01:09:24;7.80;99.90
30459;DHT22;74163;50.912;6.918;2023-12-20T01:09:56;7.90;99.90
30459;DHT22;74163;50.912;6.918;2023-12-20T01:10:28;7.80;99.90
30459;DHT22;74163;50.912;6.918;2023-12-20T01:11:00;7.80;99.90
30459;DHT22;74163;50.912;6.918;2023-12-20T01:11:32;7.80;99.90
30459;DHT22;74163;50.912;6.918;2023-12-20T01:12:05;7.80;99.90
30459;DHT22;74163;50.912;6.918;2023-12-20T01:12:37;7.80;99.90
30459;DHT22;74163;50.912;6.918;2023-12-20T01:13:09;7.80;99.90
30459;DHT22;74163;50.912;6.918;2023-12-20T01:13:42;7.80;99.90
30459;DHT22;74163;50.912;6.918;2023-12-20T01:14:13;7.80;99.90
30459;DHT22;74163;50.912;6.918;2023-12-20T01:14:45;7.70;99.90
30459;DHT22;74163;50.912;6.918;2023-12-20T01:15:17;7.80;99.90
30459;DHT22;74163;50.912;6.918;2023-12-20T01:15:49;7.80;99.90
30459;DHT22;74163;50.912;6.918;2023-12-20T01:16:21;7.80;99.90
30459;DHT22;74163;50.912;6.918;2023-12-20T01:16:53;7.90;99.90
30459;DHT22;74163;50.912;6.918;2023-12-20T01:17:25;7.70;99.90
30459;DHT22;74163;50.912;6.918;2023-12-20T01:17:57;7.70;99.90
30459;DHT22;74163;50.912;6.918;2023-12-20T01:18:29;7.70;99.90
30459;DHT22;74163;50.912;6.918;2023-12-20T01:19:01;7.70;99.90
30459;DHT22;74163;50.912;6.918;2023-12-20T01:19:33;7.60;99.90
30459;DHT22;74163;50.912;6.918;2023-12-20T01:20:06;7.70;99.90
30459;DHT22;74163;50.912;6.918;2023-12-20T01:20:38;7.60;99.90
30459;DHT22;74163;50.912;6.918;2023-12-20T01:21:10;7.60;99.90
30459;DHT22;74163;50.912;6.918;2023-12-20T01:21:42;7.50;99.90
30459;DHT22;74163;50.912;6.918;2023-12-20T01:22:14;7.50;99.90
30459;DHT22;74163;50.912;6.918;2023-12-20T01:22:46;7.50;99.90
30459;DHT22;74163;50.912;6.918;2023-12-20T01:23:18;7.50;99.90
30459;DHT22;74163;50.912;6.918;2023-12-20T01:23:51;7.50;99.90
30459;DHT22;74163;50.912;6.918;2023-12-20T01:24:22;7.40;99.90
30459;DHT22;74163;50.912;6.918;2023-12-20T01:24:54;7.40;99.90
30459;DHT22;74163;50.912;6.918;2023-12-20T01:25:26;7.30;99.90
30459;DHT22;74163;50.912;6.918;2023-12-20T01:25:58;7.40;99.90
30459;DHT22;74163;50.912;6.918;2023-12-20T01:26:30;7.30;99.90
30459;DHT22;74163;50.912;6.918;2023-12-20T01:27:02;7.30;99.90
30459;DHT22;74163;50.912;6.918;2023-12-20T01:27:36;7.30;99.90
30459;DHT22;74163;50.912;6.918;2023-12-20T01:28:08;7.30;99.90
30459;DHT22;74163;50.912;6.918;2023-12-20T01:28:40;7.30;99.90
30459;DHT22;74163;50.912;6.918;2023-12-20T01:29:12;7.30;99.90
30459;DHT22;74163;50.912;6.918;2023-12-20T01:29:43;7.20;99.90
30459;DHT22;74163;50.912;6.918;2023-12-20T01:30:15;7.30;99.90
30459;DHT22;74163;50.912;6.918;2023-12-20T01:30:47;7.30;99.90
30459;DHT22;74163;50.912;6.918;2023-12-20T01:31:19;7.30;99.90
30459;DHT22;74163;50.912;6.918;2023-12-20T01:31:51;7.30;99.90
30459;DHT22;74163;50.912;6.918;2023-12-20T01:32:23;7.40;99.90
30459;DHT22;74163;50.912;6.918;2023-12-20T01:32:55;7.30;99.90
30459;DHT22;74163;50.912;6.918;2023-12-20T01:33:27;7.40;99.90
30459;DHT22;74163;50.912;6.918;2023-12-20T01:33:59;7.40;99.90
30459;DHT22;74163;50.912;6.918;2023-12-20T01:34:31;7.30;99.90
30459;DHT22;74163;50.912;6.918;2023-12-20T01:35:03;7.40;99.90
30459;DHT22;74163;50.912;6.918;2023-12-20T01:35:36;7.40;99.90
30459;DHT22;74163;50.912;6.918;2023-12-20T01:36:08;7.40;99.90
30459;DHT22;74163;50.912;6.918;2023-12-20T01:36:40;7.40;99.90
30459;DHT22;74163;50.912;6.918;2023-12-20T01:37:12;7.40;99.90
30459;DHT22;74163;50.912;6.918;2023-12-20T01:37:44;7.40;99.90
30459;DHT22;74163;50.912;6.918;2023-12-20T01:38:16;7.40;99.90
30459;DHT22;74163;50.912;6.918;2023-12-20T01:38:48;7.40;99.90
30459;DHT22;74163;50.912;6.918;2023-12-20T01:39:20;7.50;99.90
30459;DHT22;74163;50.912;6.918;2023-12-20T01:40:00;7.40;99.90
30459;DHT22;74163;50.912;6.918;2023-12-20T01:40:32;7.40;99.90
30459;DHT22;74163;50.912;6.918;2023-12-20T01:41:04;7.40;99.90
30459;DHT22;74163;50.912;6.918;2023-12-20T01:41:36;7.50;99.90
30459;DHT22;74163;50.912;6.918;2023-12-20T01:42:08;7.50;99.90
30459;DHT22;74163;50.912;6.918;2023-12-20T01:42:41;7.50;99.90
30459;DHT22;74163;50.912;6.918;2023-12-20T01:43:13;7.50;99.90
30459;DHT22;74163;50.912;6.918;2023-12-20T01:43:45;7.50;99.90
30459;DHT22;74163;50.912;6.918;2023-12-20T01:44:22;7.50;99.90
30459;DHT22;74163;50.912;6.918;2023-12-20T01:44:54;7.40;99.90
30459;DHT22;74163;50.912;6.918;2023-12-20T01:45:26;7.50;99.90
30459;DHT22;74163;50.912;6.918;2023-12-20T01:45:58;7.50;99.90
30459;DHT22;74163;50.912;6.918;2023-12-20T01:46:31;7.40;99.90
30459;DHT22;74163;50.912;6.918;2023-12-20T01:47:03;7.40;99.90
30459;DHT22;74163;50.912;6.918;2023-12-20T01:47:36;7.40;99.90
30459;DHT22;74163;50.912;6.918;2023-12-20T01:48:08;7.40;99.90
30459;DHT22;74163;50.912;6.918;2023-12-20T01:48:41;7.40;99.90
30459;DHT22;74163;50.912;6.918;2023-12-20T01:49:14;7.40;99.90
30459;DHT22;74163;50.912;6.918;2023-12-20T01:49:47;7.40;99.90
30459;DHT22;74163;50.912;6.918;2023-12-20T01:50:19;7.40;99.90
30459;DHT22;74163;50.912;6.918;2023-12-20T01:50:52;7.30;99.90
30459;DHT22;74163;50.912;6.918;2023-12-20T01:51:25;7.30;99.90
30459;DHT22;74163;50.912;6.918;2023-12-20T01:51:57;7.30;99.90
30459;DHT22;74163;50.912;6.918;2023-12-20T01:52:29;7.30;99.90
30459;DHT22;74163;50.912;6.918;2023-12-20T01:53:02;7.30;99.90
30459;DHT22;74163;50.912;6.918;2023-12-20T01:53:35;7.20;99.90
30459;DHT22;74163;50.912;6.918;2023-12-20T01:54:07;7.20;99.90
30459;DHT22;74163;50.912;6.918;2023-12-20T01:54:40;7.30;99.90
30459;DHT22;74163;50.912;6.918;2023-12-20T01:55:13;7.20;99.90
30459;DHT22;74163;50.912;6.918;2023-12-20T01:55:45;7.10;99.90
30459;DHT22;74163;50.912;6.918;2023-12-20T01:56:18;7.10;99.90
30459;DHT22;74163;50.912;6.918;2023-12-20T01:56:50;7.10;99.90
30459;DHT22;74163;50.912;6.918;2023-12-20T01:57:22;7.10;99.90
30459;DHT22;74163;50.912;6.918;2023-12-20T01:57:56;7.10;99.90
30459;DHT22;74163;50.912;6.918;2023-12-20T01:58:29;7.20;99.90
30459;DHT22;74163;50.912;6.918;2023-12-20T01:59:01;7.10;99.90
30459;DHT22;74163;50.912;6.918;2023-12-20T01:59:34;7.10;99.90
30459;DHT22;74163;50.912;6.918;2023-12-20T02:00:07;7.00;99.90
30459;DHT22;74163;50.912;6.918;2023-12-20T02:00:39;7.10;99.90
30459;DHT22;74163;50.912;6.918;2023-12-20T02:01:12;7.10;99.90
30459;DHT22;74163;50.912;6.918;2023-12-20T02:01:44;7.10;99.90
30459;DHT22;74163;50.912;6.918;2023-12-20T02:02:17;7.00;99.90
30459;DHT22;74163;50.912;6.918;2023-12-20T02:02:50;7.00;99.90
30459;DHT22;74163;50.912;6.918;2023-12-20T02:03:25;7.00;99.90
30459;DHT22;74163;50.912;6.918;2023-12-20T02:03:57;7.00;99.90
30459;DHT22;74163;50.912;6.918;2023-12-20T02:04:29;7.00;99.90
30459;DHT22;74163;50.912;6.918;2023-12-20T02:05:01;7.00;99.90
30459;DHT22;74163;50.912;6.918;2023-12-20T02:05:35;7.00;99.90
30459;DHT22;74163;50.912;6.918;2023-12-20T02:06:07;7.00;99.90
30459;DHT22;74163;50.912;6.918;2023-12-20T02:06:40;7.00;99.90
30459;DHT22;74163;50.912;6.918;2023-12-20T02:07:12;7.00;99.90
30459;DHT22;74163;50.912;6.918;2023-12-20T02:07:45;6.90;99.90
30459;DHT22;74163;50.912;6.918;2023-12-20T02:08:17;6.90;99.90
30459;DHT22;74163;50.912;6.918;2023-12-20T02:08:49;6.90;99.90
30459;DHT22;74163;50.912;6.918;2023-12-20T02:09:22;7.00;99.90
30459;DHT22;74163;50.912;6.918;2023-12-20T02:09:54;7.00;99.90
30459;DHT22;74163;50.912;6.918;2023-12-20T02:10:27;6.90;99.90
30459;DHT22;74163;50.912;6.918;2023-12-20T02:11:00;7.00;99.90
30459;DHT22;74163;50.912;6.918;2023-12-20T02:11:32;6.90;99.90
30459;DHT22;74163;50.912;6.918;2023-12-20T02:12:04;6.90;99.90
30459;DHT22;74163;50.912;6.918;2023-12-20T02:12:37;6.90;99.90
30459;DHT22;74163;50.912;6.918;2023-12-20T02:13:10;6.90;99.90
30459;DHT22;74163;50.912;6.918;2023-12-20T02:13:42;6.80;99.90
30459;DHT22;74163;50.912;6.918;2023-12-20T02:14:14;6.90;99.90
30459;DHT22;74163;50.912;6.918;2023-12-20T02:14:46;6.80;99.90
30459;DHT22;74163;50.912;6.918;2023-12-20T02:15:18;6.80;99.90
30459;DHT22;74163;50.912;6.918;2023-12-20T02:15:50;6.70;99.90
30459;DHT22;74163;50.912;6.918;2023-12-20T02:16:22;6.70;99.90
30459;DHT22;74163;50.912;6.918;2023-12-20T02:16:54;6.70;99.90
30459;DHT22;74163;50.912;6.918;2023-12-20T02:17:27;6.70;99.90
30459;DHT22;74163;50.912;6.918;2023-12-20T02:17:59;6.60;99.90
30459;DHT22;74163;50.912;6.918;2023-12-20T02:18:31;6.60;99.90
30459;DHT22;74163;50.912;6.918;2023-12-20T02:19:04;6.60;99.90
30459;DHT22;74163;50.912;6.918;2023-12-20T02:19:38;6.50;99.90
30459;DHT22;74163;50.912;6.918;2023-12-20T02:20:11;6.50;99.90
30459;DHT22;74163;50.912;6.918;2023-12-20T02:20:43;6.50;99.90
30459;DHT22;74163;50.912;6.918;2023-12-20T02:21:15;6.50;99.90
30459;DHT22;74163;50.912;6.918;2023-12-20T02:21:48;6.50;99.90
30459;DHT22;74163;50.912;6.918;2023-12-20T02:22:20;6.40;99.90
30459;DHT22;74163;50.912;6.918;2023-12-20T02:22:52;6.50;99.90
30459;DHT22;74163;50.912;6.918;2023-12-20T02:23:24;6.40;99.90
30459;DHT22;74163;50.912;6.918;2023-12-20T02:23:56;6.30;99.90
30459;DHT22;74163;50.912;6.918;2023-12-20T02:24:27;6.30;99.90
30459;DHT22;74163;50.912;6.918;2023-12-20T02:24:59;6.30;99.90
30459;DHT22;74163;50.912;6.918;2023-12-20T02:25:31;6.20;99.90
30459;DHT22;74163;50.912;6.918;2023-12-20T02:26:03;6.20;99.90
30459;DHT22;74163;50.912;6.918;2023-12-20T02:26:36;6.20;99.90
30459;DHT22;74163;50.912;6.918;2023-12-20T02:27:08;6.20;99.90
30459;DHT22;74163;50.912;6.918;2023-12-20T02:27:40;6.10;99.90
30459;DHT22;74163;50.912;6.918;2023-12-20T02:28:13;6.10;99.90
30459;DHT22;74163;50.912;6.918;2023-12-20T02:28:45;6.10;99.90
30459;DHT22;74163;50.912;6.918;2023-12-20T02:29:17;6.10;99.90
30459;DHT22;74163;50.912;6.918;2023-12-20T02:29:50;6.10;99.90
30459;DHT22;74163;50.912;6.918;2023-12-20T02:30:21;6.10;99.90
30459;DHT22;74163;50.912;6.918;2023-12-20T02:30:53;6.10;99.90
30459;DHT22;74163;50.912;6.918;2023-12-20T02:31:25;6.10;99.90
30459;DHT22;74163;50.912;6.918;2023-12-20T02:31:57;6.10;99.90
30459;DHT22;74163;50.912;6.918;2023-12-20T02:32:29;6.10;99.90
30459;DHT22;74163;50.912;6.918;2023-12-20T02:33:04;6.10;99.90
30459;DHT22;74163;50.912;6.918;2023-12-20T02:33:39;6.00;99.90
30459;DHT22;74163;50.912;6.918;2023-12-20T02:34:11;6.00;99.90
30459;DHT22;74163;50.912;6.918;2023-12-20T02:34:43;6.00;99.90
30459;DHT22;74163;50.912;6.918;2023-12-20T02:35:15;6.00;99.90
30459;DHT22;74163;50.912;6.918;2023-12-20T02:35:47;6.00;99.90
30459;DHT22;74163;50.912;6.918;2023-12-20T02:36:19;6.00;99.90
30459;DHT22;74163;50.912;6.918;2023-12-20T02:36:53;6.00;99.90
30459;DHT22;74163;50.912;6.918;2023-12-20T02:37:24;6.00;99.90
30459;DHT22;74163;50.912;6.918;2023-12-20T02:37:57;6.00;99.90
30459;DHT22;74163;50.912;6.918;2023-12-20T02:38:28;6.00;99.90
30459;DHT22;74163;50.912;6.918;2023-12-20T02:39:00;6.00;99.90
30459;DHT22;74163;50.912;6.918;2023-12-20T02:39:32;6.00;99.90
30459;DHT22;74163;50.912;6.918;2023-12-20T02:40:05;5.90;99.90
30459;DHT22;74163;50.912;6.918;2023-12-20T02:40:37;5.90;99.90
30459;DHT22;74163;50.912;6.918;2023-12-20T02:41:09;5.90;99.90
30459;DHT22;74163;50.912;6.918;2023-12-20T02:41:41;6.00;99.90
30459;DHT22;74163;50.912;6.918;2023-12-20T02:42:13;5.90;99.90
30459;DHT22;74163;50.912;6.918;2023-12-20T02:42:45;5.90;99.90
30459;DHT22;74163;50.912;6.918;2023-12-20T02:43:17;6.00;99.90
30459;DHT22;74163;50.912;6.918;2023-12-20T02:43:49;6.00;99.90
30459;DHT22;74163;50.912;6.918;2023-12-20T02:44:21;6.00;99.90
30459;DHT22;74163;50.912;6.918;2023-12-20T02:44:52;6.00;99.90
30459;DHT22;74163;50.912;6.918;2023-12-20T02:45:25;6.00;99.90
30459;DHT22;74163;50.912;6.918;2023-12-20T02:45:57;6.00;99.90
30459;DHT22;74163;50.912;6.918;2023-12-20T02:46:29;6.00;99.90
30459;DHT22;74163;50.912;6.918;2023-12-20T02:47:00;6.00;99.90
30459;DHT22;74163;50.912;6.918;2023-12-20T02:47:32;5.90;99.90
30459;DHT22;74163;50.912;6.918;2023-12-20T02:48:05;5.90;99.90
30459;DHT22;74163;50.912;6.918;2023-12-20T02:48:37;5.90;99.90
30459;DHT22;74163;50.912;6.918;2023-12-20T02:49:09;5.90;99.90
30459;DHT22;74163;50.912;6.918;2023-12-20T02:49:41;5.80;99.90
30459;DHT22;74163;50.912;6.918;2023-12-20T02:50:13;5.80;99.90
30459;DHT22;74163;50.912;6.918;2023-12-20T02:50:46;5.80;99.90
30459;DHT22;74163;50.912;6.918;2023-12-20T02:51:18;5.80;99.90
30459;DHT22;74163;50.912;6.918;2023-12-20T02:51:50;5.80;99.90
30459;DHT22;74163;50.912;6.918;2023-12-20T02:52:24;5.80;99.90
30459;DHT22;74163;50.912;6.918;2023-12-20T02:52:56;5.80;99.90
30459;DHT22;74163;50.912;6.918;2023-12-20T02:53:28;5.70;99.90
30459;DHT22;74163;50.912;6.918;2023-12-20T02:54:00;5.80;99.90
30459;DHT22;74163;50.912;6.918;2023-12-20T02:54:32;5.80;99.90
30459;DHT22;74163;50.912;6.918;2023-12-20T02:55:04;5.80;99.90
30459;DHT22;74163;50.912;6.918;2023-12-20T02:55:36;5.80;99.90
30459;DHT22;74163;50.912;6.918;2023-12-20T02:56:08;5.80;99.90
30459;DHT22;74163;50.912;6.918;2023-12-20T02:56:40;5.80;99.90
30459;DHT22;74163;50.912;6.918;2023-12-20T02:57:12;5.90;99.90
30459;DHT22;74163;50.912;6.918;2023-12-20T02:57:44;5.90;99.90
30459;DHT22;74163;50.912;6.918;2023-12-20T02:58:16;5.90;99.90
30459;DHT22;74163;50.912;6.918;2023-12-20T02:58:48;5.90;99.90
30459;DHT22;74163;50.912;6.918;2023-12-20T02:59:20;5.90;99.90
30459;DHT22;74163;50.912;6.918;2023-12-20T02:59:52;5.90;99.90
30459;DHT22;74163;50.912;6.918;2023-12-20T03:00:24;5.90;99.90
30459;DHT22;74163;50.912;6.918;2023-12-20T03:00:55;6.00;99.90
30459;DHT22;74163;50.912;6.918;2023-12-20T03:01:29;6.00;99.90
30459;DHT22;74163;50.912;6.918;2023-12-20T03:02:02;6.00;99.90
30459;DHT22;74163;50.912;6.918;2023-12-20T03:02:34;6.10;99.90
30459;DHT22;74163;50.912;6.918;2023-12-20T03:03:06;6.20;99.90
30459;DHT22;74163;50.912;6.918;2023-12-20T03:03:38;6.10;99.90
30459;DHT22;74163;50.912;6.918;2023-12-20T03:04:09;6.10;99.90
30459;DHT22;74163;50.912;6.918;2023-12-20T03:04:41;6.10;99.90
30459;DHT22;74163;50.912;6.918;2023-12-20T03:05:14;6.10;99.90
30459;DHT22;74163;50.912;6.918;2023-12-20T03:05:46;6.10;99.90
30459;DHT22;74163;50.912;6.918;2023-12-20T03:06:18;6.10;99.90
30459;DHT22;74163;50.912;6.918;2023-12-20T03:06:50;6.10;99.90
30459;DHT22;74163;50.912;6.918;2023-12-20T03:07:23;6.10;99.90
30459;DHT22;74163;50.912;6.918;2023-12-20T03:07:55;6.10;99.90
30459;DHT22;74163;50.912;6.918;2023-12-20T03:08:27;6.10;99.90
30459;DHT22;74163;50.912;6.918;2023-12-20T03:09:03;6.20;99.90
30459;DHT22;74163;50.912;6.918;2023-12-20T03:09:34;6.10;99.90
30459;DHT22;74163;50.912;6.918;2023-12-20T03:10:26;6.10;99.90
30459;DHT22;74163;50.912;6.918;2023-12-20T03:10:59;6.10;99.90
30459;DHT22;74163;50.912;6.918;2023-12-20T03:11:31;6.10;99.90
30459;DHT22;74163;50.912;6.918;2023-12-20T03:12:04;6.10;99.90
30459;DHT22;74163;50.912;6.918;2023-12-20T03:12:36;6.10;99.90
30459;DHT22;74163;50.912;6.918;2023-12-20T03:13:07;6.10;99.90
30459;DHT22;74163;50.912;6.918;2023-12-20T03:13:40;6.10;99.90
30459;DHT22;74163;50.912;6.918;2023-12-20T03:14:12;6.20;99.90
30459;DHT22;74163;50.912;6.918;2023-12-20T03:14:44;6.10;99.90
30459;DHT22;74163;50.912;6.918;2023-12-20T03:15:16;6.10;99.90
30459;DHT22;74163;50.912;6.918;2023-12-20T03:15:47;6.10;99.90
30459;DHT22;74163;50.912;6.918;2023-12-20T03:16:19;6.10;99.90
30459;DHT22;74163;50.912;6.918;2023-12-20T03:16:51;6.10;99.90
30459;DHT22;74163;50.912;6.918;2023-12-20T03:17:23;6.20;99.90
30459;DHT22;74163;50.912;6.918;2023-12-20T03:17:55;6.10;99.90
30459;DHT22;74163;50.912;6.918;2023-12-20T03:18:27;6.10;99.90
30459;DHT22;74163;50.912;6.918;2023-12-20T03:18:59;6.20;99.90
30459;DHT22;74163;50.912;6.918;2023-12-20T03:19:31;6.20;99.90
30459;DHT22;74163;50.912;6.918;2023-12-20T03:20:03;6.20;99.90
30459;DHT22;74163;50.912;6.918;2023-12-20T03:20:35;6.20;99.90
30459;DHT22;74163;50.912;6.918;2023-12-20T03:21:07;6.20;99.90
30459;DHT22;74163;50.912;6.918;2023-12-20T03:21:42;6.20;99.90
30459;DHT22;74163;50.912;6.918;2023-12-20T03:22:14;6.20;99.90
30459;DHT22;74163;50.912;6.918;2023-12-20T03:22:47;6.20;99.90
30459;DHT22;74163;50.912;6.918;2023-12-20T03:23:22;6.20;99.90
30459;DHT22;74163;50.912;6.918;2023-12-20T03:23:54;6.20;99.90
30459;DHT22;74163;50.912;6.918;2023-12-20T03:24:26;6.20;99.90
30459;DHT22;74163;50.912;6.918;2023-12-20T03:24:57;6.30;99.90
30459;DHT22;74163;50.912;6.918;2023-12-20T03:25:30;6.30;99.90
30459;DHT22;74163;50.912;6.918;2023-12-20T03:26:02;6.30;99.90
30459;DHT22;74163;50.912;6.918;2023-12-20T03:26:34;6.30;99.90
30459;DHT22;74163;50.912;6.918;2023-12-20T03:27:06;6.30;99.90